createdAt,value
2018-01-28T00:00:32.577Z,0
2018-01-28T00:01:41.563Z,0
2018-01-28T00:02:50.449Z,0
2018-01-28T00:03:59.332Z,0
2018-01-28T00:05:08.221Z,0
2018-01-28T00:06:17.103Z,0
2018-01-28T00:07:25.986Z,0
2018-01-28T00:08:34.873Z,0
2018-01-28T00:09:43.757Z,0
2018-01-28T00:10:52.642Z,0
2018-01-28T00:12:01.528Z,0
2018-01-28T00:13:10.466Z,0
2018-01-28T00:14:19.349Z,0
2018-01-28T00:15:28.234Z,0
2018-01-28T00:16:37.119Z,0
2018-01-28T00:17:46.004Z,0
2018-01-28T00:18:55.040Z,0
2018-01-28T00:20:03.933Z,0
2018-01-28T00:21:12.819Z,0
2018-01-28T00:22:21.705Z,0
2018-01-28T00:23:30.591Z,0
2018-01-28T00:24:39.628Z,0
2018-01-28T00:25:48.797Z,0
2018-01-28T00:26:57.683Z,0
2018-01-28T00:28:06.568Z,0
2018-01-28T00:29:15.452Z,0
2018-01-28T00:30:24.397Z,0
2018-01-28T00:31:33.280Z,0
2018-01-28T00:32:42.447Z,0
2018-01-28T00:33:51.331Z,0
2018-01-28T00:35:00.216Z,0
2018-01-28T00:36:09.499Z,0
2018-01-28T00:37:18.385Z,0
2018-01-28T00:38:27.269Z,0
2018-01-28T00:39:36.157Z,0
2018-01-28T00:40:45.042Z,0
2018-01-28T00:41:54.228Z,0
2018-01-28T00:43:03.114Z,0
2018-01-28T00:44:11.999Z,0
2018-01-28T00:45:20.883Z,0
2018-01-28T00:46:29.766Z,0
2018-01-28T00:47:38.930Z,0
2018-01-28T00:48:47.814Z,0
2018-01-28T00:49:56.698Z,0
2018-01-28T00:51:05.582Z,0
2018-01-28T00:52:14.467Z,0
2018-01-28T00:53:23.399Z,0
2018-01-28T00:54:32.285Z,0
2018-01-28T00:55:41.171Z,0
2018-01-28T00:56:50.055Z,0
2018-01-28T00:57:58.940Z,0
2018-01-28T00:59:07.875Z,0
2018-01-28T01:00:16.758Z,0
2018-01-28T01:01:25.643Z,0
2018-01-28T01:02:34.530Z,0
2018-01-28T01:03:43.412Z,0
2018-01-28T01:04:52.575Z,0
2018-01-28T01:06:01.738Z,0
2018-01-28T01:07:10.624Z,0
2018-01-28T01:08:19.509Z,0
2018-01-28T01:09:28.393Z,0
2018-01-28T01:10:37.682Z,0
2018-01-28T01:11:46.566Z,0
2018-01-28T01:12:55.452Z,0
2018-01-28T01:14:04.618Z,0
2018-01-28T01:15:13.507Z,0
2018-01-28T01:16:22.691Z,0
2018-01-28T01:17:31.579Z,0
2018-01-28T01:18:40.469Z,0
2018-01-28T01:19:49.357Z,0
2018-01-28T01:20:58.807Z,0
2018-01-28T01:22:07.741Z,0
2018-01-28T01:23:16.625Z,0
2018-01-28T01:24:25.512Z,0
2018-01-28T01:25:34.397Z,0
2018-01-28T01:26:43.283Z,0
2018-01-28T01:27:52.168Z,0
2018-01-28T01:29:01.061Z,0
2018-01-28T01:30:09.941Z,0
2018-01-28T01:31:18.827Z,0
2018-01-28T01:32:27.714Z,0
2018-01-28T01:33:36.901Z,0
2018-01-28T01:34:45.789Z,0
2018-01-28T01:35:54.673Z,0
2018-01-28T01:37:03.559Z,0
2018-01-28T01:38:12.724Z,0
2018-01-28T01:39:21.758Z,0
2018-01-28T01:40:30.644Z,0
2018-01-28T01:41:39.533Z,0
2018-01-28T01:42:48.421Z,0
2018-01-28T01:43:57.309Z,0
2018-01-28T01:45:06.349Z,0
2018-01-28T01:46:15.235Z,0
2018-01-28T01:47:24.121Z,0
2018-01-28T01:48:33.010Z,0
2018-01-28T01:49:41.894Z,0
2018-01-28T01:50:50.829Z,0
2018-01-28T01:51:59.717Z,0
2018-01-28T01:53:08.604Z,0
2018-01-28T01:54:17.766Z,0
2018-01-28T01:55:26.652Z,0
2018-01-28T01:56:35.842Z,0
2018-01-28T01:57:44.729Z,0
2018-01-28T01:58:53.615Z,0
2018-01-28T02:00:02.547Z,0
2018-01-28T02:01:11.388Z,0
2018-01-28T02:02:20.326Z,0
2018-01-28T02:03:29.213Z,0
2018-01-28T02:04:38.100Z,0
2018-01-28T02:05:46.984Z,0
2018-01-28T02:06:55.871Z,0
2018-01-28T02:08:04.805Z,0
2018-01-28T02:09:13.692Z,0
2018-01-28T02:10:22.579Z,0
2018-01-28T02:11:31.465Z,0
2018-01-28T02:12:40.351Z,0
2018-01-28T02:13:49.438Z,0
2018-01-28T02:14:58.609Z,0
2018-01-28T02:16:07.499Z,0
2018-01-28T02:17:16.387Z,0
2018-01-28T02:18:25.272Z,0
2018-01-28T02:19:34.256Z,0
2018-01-28T02:20:43.143Z,0
2018-01-28T02:21:52.030Z,0
2018-01-28T02:23:00.918Z,0
2018-01-28T02:24:09.812Z,0
2018-01-28T02:25:19.121Z,0
2018-01-28T02:26:28.010Z,0
2018-01-28T02:27:36.898Z,0
2018-01-28T02:28:45.785Z,0
2018-01-28T02:29:54.673Z,0
2018-01-28T02:31:03.762Z,0
2018-01-28T02:32:12.645Z,0
2018-01-28T02:33:21.537Z,0
2018-01-28T02:34:30.419Z,0
2018-01-28T02:35:39.305Z,0
2018-01-28T02:36:48.291Z,0
2018-01-28T02:37:57.461Z,0
2018-01-28T02:39:06.353Z,0
2018-01-28T02:40:15.237Z,0
2018-01-28T02:41:24.123Z,0
2018-01-28T02:42:33.110Z,0
2018-01-28T02:43:41.997Z,0
2018-01-28T02:44:50.882Z,0
2018-01-28T02:45:59.769Z,0
2018-01-28T02:47:08.655Z,0
2018-01-28T02:48:17.841Z,0
2018-01-28T02:49:26.728Z,0
2018-01-28T02:50:35.614Z,0
2018-01-28T02:51:44.497Z,0
2018-01-28T02:52:53.383Z,0
2018-01-28T02:54:02.522Z,0
2018-01-28T02:55:11.405Z,0
2018-01-28T02:56:20.292Z,0
2018-01-28T02:57:29.176Z,0
2018-01-28T02:58:38.340Z,0
2018-01-28T02:59:47.226Z,0
2018-01-28T03:00:56.113Z,0
2018-01-28T03:02:05.001Z,0
2018-01-28T03:03:13.887Z,0
2018-01-28T03:04:22.772Z,0
2018-01-28T03:05:31.809Z,0
2018-01-28T03:06:40.697Z,0
2018-01-28T03:07:49.632Z,0
2018-01-28T03:08:58.521Z,0
2018-01-28T03:10:07.411Z,0
2018-01-28T03:11:16.602Z,0
2018-01-28T03:12:25.489Z,0
2018-01-28T03:13:34.377Z,0
2018-01-28T03:14:43.547Z,0
2018-01-28T03:15:52.431Z,0
2018-01-28T03:17:01.618Z,0
2018-01-28T03:18:10.504Z,0
2018-01-28T03:19:19.391Z,0
2018-01-28T03:20:28.556Z,0
2018-01-28T03:21:37.722Z,0
2018-01-28T03:22:47.007Z,0
2018-01-28T03:23:55.896Z,0
2018-01-28T03:25:04.782Z,0
2018-01-28T03:26:13.669Z,0
2018-01-28T03:27:22.838Z,0
2018-01-28T03:28:31.774Z,0
2018-01-28T03:29:40.659Z,0
2018-01-28T03:30:49.527Z,0
2018-01-28T03:31:58.662Z,0
2018-01-28T03:33:07.522Z,0
2018-01-28T03:34:16.429Z,0
2018-01-28T03:35:25.566Z,0
2018-01-28T03:36:34.425Z,0
2018-01-28T03:37:43.283Z,0
2018-01-28T03:38:52.145Z,0
2018-01-28T03:40:01.002Z,0
2018-01-28T03:41:09.838Z,0
2018-01-28T03:42:18.668Z,0
2018-01-28T03:43:27.497Z,0
2018-01-28T03:44:36.322Z,0
2018-01-28T03:45:45.403Z,0
2018-01-28T03:46:54.231Z,0
2018-01-28T03:48:03.336Z,0
2018-01-28T03:49:12.170Z,0
2018-01-28T03:50:20.995Z,0
2018-01-28T03:51:30.085Z,0
2018-01-28T03:52:39.188Z,0
2018-01-28T03:53:48.018Z,0
2018-01-28T03:54:56.845Z,0
2018-01-28T03:56:05.674Z,0
2018-01-28T03:57:14.508Z,0
2018-01-28T03:58:23.615Z,0
2018-01-28T03:59:32.438Z,0
2018-01-28T04:00:41.267Z,0
2018-01-28T04:01:50.099Z,0
2018-01-28T04:02:59.029Z,0
2018-01-28T04:04:07.859Z,0
2018-01-28T04:05:16.686Z,0
2018-01-28T04:06:25.517Z,0
2018-01-28T04:07:34.347Z,0
2018-01-28T04:08:43.325Z,0
2018-01-28T04:09:52.153Z,0
2018-01-28T04:11:00.982Z,0
2018-01-28T04:12:09.813Z,0
2018-01-28T04:13:18.641Z,0
2018-01-28T04:14:27.620Z,0
2018-01-28T04:15:36.448Z,0
2018-01-28T04:16:45.276Z,0
2018-01-28T04:17:54.106Z,0
2018-01-28T04:19:02.938Z,0
2018-01-28T04:20:12.044Z,0
2018-01-28T04:21:20.874Z,0
2018-01-28T04:22:29.703Z,0
2018-01-28T04:23:38.805Z,0
2018-01-28T04:24:47.636Z,0
2018-01-28T04:25:56.618Z,0
2018-01-28T04:27:05.450Z,0
2018-01-28T04:28:14.280Z,0
2018-01-28T04:29:23.108Z,0
2018-01-28T04:30:31.940Z,0
2018-01-28T04:31:40.820Z,0
2018-01-28T04:32:49.652Z,0
2018-01-28T04:33:58.482Z,0
2018-01-28T04:35:07.311Z,0
2018-01-28T04:36:16.687Z,0
2018-01-28T04:37:25.567Z,0
2018-01-28T04:38:34.399Z,0
2018-01-28T04:39:43.228Z,0
2018-01-28T04:40:52.057Z,0
2018-01-28T04:42:01.159Z,0
2018-01-28T04:43:10.262Z,0
2018-01-28T04:44:19.093Z,0
2018-01-28T04:45:28.199Z,0
2018-01-28T04:46:37.030Z,0
2018-01-28T04:47:45.863Z,0
2018-01-28T04:48:55.270Z,0
2018-01-28T04:50:04.097Z,0
2018-01-28T04:51:12.930Z,0
2018-01-28T04:52:22.031Z,0
2018-01-28T04:53:31.136Z,0
2018-01-28T04:54:40.018Z,0
2018-01-28T04:55:48.849Z,0
2018-01-28T04:56:57.683Z,0
2018-01-28T04:58:06.783Z,0
2018-01-28T04:59:15.613Z,0
2018-01-28T05:00:24.442Z,0
2018-01-28T05:01:33.271Z,0
2018-01-28T05:02:42.107Z,0
2018-01-28T05:03:50.931Z,0
2018-01-28T05:04:59.760Z,0
2018-01-28T05:06:08.592Z,0
2018-01-28T05:07:17.423Z,0
2018-01-28T05:08:26.255Z,0
2018-01-28T05:09:35.084Z,0
2018-01-28T05:10:44.187Z,0
2018-01-28T05:11:53.317Z,0
2018-01-28T05:13:02.145Z,0
2018-01-28T05:14:10.977Z,0
2018-01-28T05:15:19.810Z,0
2018-01-28T05:16:28.660Z,0
2018-01-28T05:17:37.772Z,0
2018-01-28T05:18:46.598Z,0
2018-01-28T05:19:55.429Z,0
2018-01-28T05:21:04.260Z,0
2018-01-28T05:22:13.090Z,0
2018-01-28T05:23:22.070Z,0
2018-01-28T05:24:30.901Z,0
2018-01-28T05:25:39.732Z,0
2018-01-28T05:26:48.594Z,0
2018-01-28T05:27:57.665Z,0
2018-01-28T05:29:06.594Z,0
2018-01-28T05:30:15.424Z,0
2018-01-28T05:31:24.255Z,0
2018-01-28T05:32:33.090Z,0
2018-01-28T05:33:41.918Z,0
2018-01-28T05:34:51.047Z,0
2018-01-28T05:35:59.880Z,0
2018-01-28T05:37:08.711Z,0
2018-01-28T05:38:17.543Z,0
2018-01-28T05:39:26.377Z,0
2018-01-28T05:40:35.509Z,0
2018-01-28T05:41:44.338Z,0
2018-01-28T05:42:53.170Z,0
2018-01-28T05:44:02.003Z,0
2018-01-28T05:45:10.833Z,0
2018-01-28T05:46:19.765Z,0
2018-01-28T05:47:28.596Z,0
2018-01-28T05:48:37.427Z,0
2018-01-28T05:49:46.257Z,0
2018-01-28T05:50:55.088Z,0
2018-01-28T05:52:03.918Z,0
2018-01-28T05:53:12.754Z,0
2018-01-28T05:54:21.585Z,0
2018-01-28T05:55:30.424Z,0
2018-01-28T05:56:39.245Z,0
2018-01-28T05:57:48.073Z,0
2018-01-28T05:58:56.906Z,0
2018-01-28T06:00:05.737Z,0
2018-01-28T06:01:14.842Z,0
2018-01-28T06:02:23.673Z,0
2018-01-28T06:03:32.502Z,0
2018-01-28T06:04:41.331Z,0
2018-01-28T06:05:50.162Z,0
2018-01-28T06:06:58.993Z,0
2018-01-28T06:08:08.102Z,0
2018-01-28T06:09:17.033Z,0
2018-01-28T06:10:25.865Z,0
2018-01-28T06:11:34.696Z,0
2018-01-28T06:12:43.806Z,0
2018-01-28T06:13:52.638Z,0
2018-01-28T06:15:01.668Z,0
2018-01-28T06:16:10.496Z,0
2018-01-28T06:17:19.326Z,0
2018-01-28T06:18:28.159Z,0
2018-01-28T06:19:36.996Z,0
2018-01-28T06:20:46.407Z,0
2018-01-28T06:21:55.290Z,0
2018-01-28T06:23:04.069Z,0
2018-01-28T06:24:12.897Z,0
2018-01-28T06:25:21.729Z,0
2018-01-28T06:26:30.662Z,0
2018-01-28T06:27:39.488Z,0
2018-01-28T06:28:48.320Z,0
2018-01-28T06:29:57.148Z,0
2018-01-28T06:31:05.976Z,0
2018-01-28T06:32:14.959Z,0
2018-01-28T06:33:23.790Z,0
2018-01-28T06:34:32.621Z,0
2018-01-28T06:35:41.452Z,0
2018-01-28T06:36:50.299Z,0
2018-01-28T06:37:59.209Z,0
2018-01-28T06:39:08.045Z,0
2018-01-28T06:40:16.874Z,0
2018-01-28T06:41:25.706Z,0
2018-01-28T06:42:34.536Z,0
2018-01-28T06:43:43.364Z,0
2018-01-28T06:44:52.201Z,0
2018-01-28T06:46:01.026Z,0
2018-01-28T06:47:09.858Z,0
2018-01-28T06:48:18.688Z,0
2018-01-28T06:49:27.668Z,0
2018-01-28T06:50:36.772Z,4
2018-01-28T06:51:45.604Z,4
2018-01-28T06:52:54.435Z,4
2018-01-28T06:54:03.266Z,0
2018-01-28T06:55:12.397Z,4
2018-01-28T06:56:21.226Z,4
2018-01-28T06:57:30.057Z,4
2018-01-28T06:58:38.885Z,4
2018-01-28T06:59:47.716Z,8
2018-01-28T07:00:56.544Z,12
2018-01-28T07:02:05.376Z,12
2018-01-28T07:03:14.207Z,12
2018-01-28T07:04:23.037Z,16
2018-01-28T07:05:31.867Z,16
2018-01-28T07:06:40.698Z,20
2018-01-28T07:07:49.527Z,20
2018-01-28T07:08:58.359Z,24
2018-01-28T07:10:07.464Z,28
2018-01-28T07:11:16.296Z,28
2018-01-28T07:12:25.275Z,28
2018-01-28T07:13:34.104Z,32
2018-01-28T07:14:42.936Z,36
2018-01-28T07:15:51.820Z,44
2018-01-28T07:17:00.651Z,48
2018-01-28T07:18:09.779Z,40
2018-01-28T07:19:18.610Z,36
2018-01-28T07:20:27.440Z,48
2018-01-28T07:21:36.277Z,56
2018-01-28T07:22:45.107Z,60
2018-01-28T07:23:54.055Z,64
2018-01-28T07:25:02.867Z,72
2018-01-28T07:26:11.697Z,76
2018-01-28T07:27:20.531Z,80
2018-01-28T07:28:29.363Z,88
2018-01-28T07:29:38.192Z,108
2018-01-28T07:30:47.025Z,116
2018-01-28T07:31:55.857Z,144
2018-01-28T07:33:04.905Z,160
2018-01-28T07:34:13.727Z,168
2018-01-28T07:35:22.880Z,208
2018-01-28T07:36:31.712Z,220
2018-01-28T07:37:40.541Z,252
2018-01-28T07:38:49.373Z,260
2018-01-28T07:39:58.255Z,288
2018-01-28T07:41:07.086Z,328
2018-01-28T07:42:15.918Z,340
2018-01-28T07:43:24.751Z,360
2018-01-28T07:44:33.580Z,384
2018-01-28T07:45:42.409Z,416
2018-01-28T07:46:51.362Z,456
2018-01-28T07:48:00.175Z,448
2018-01-28T07:49:09.007Z,436
2018-01-28T07:50:17.839Z,416
2018-01-28T07:51:26.672Z,424
2018-01-28T07:52:35.652Z,524
2018-01-28T07:53:44.482Z,552
2018-01-28T07:54:53.313Z,580
2018-01-28T07:56:02.149Z,604
2018-01-28T07:57:10.976Z,664
2018-01-28T07:58:20.111Z,692
2018-01-28T07:59:28.938Z,696
2018-01-28T08:00:37.768Z,696
2018-01-28T08:01:46.600Z,764
2018-01-28T08:02:55.432Z,784
2018-01-28T08:04:04.567Z,796
2018-01-28T08:05:13.393Z,824
2018-01-28T08:06:22.224Z,844
2018-01-28T08:07:31.055Z,844
2018-01-28T08:08:39.890Z,852
2018-01-28T08:09:48.821Z,832
2018-01-28T08:10:57.654Z,860
2018-01-28T08:12:06.490Z,932
2018-01-28T08:13:15.320Z,976
2018-01-28T08:14:24.152Z,972
2018-01-28T08:15:33.233Z,956
2018-01-28T08:16:42.064Z,968
2018-01-28T08:17:50.896Z,968
2018-01-28T08:18:59.729Z,916
2018-01-28T08:20:08.560Z,1012
2018-01-28T08:21:17.491Z,952
2018-01-28T08:22:26.593Z,1004
2018-01-28T08:23:35.424Z,1152
2018-01-28T08:24:44.257Z,1080
2018-01-28T08:25:53.089Z,1112
2018-01-28T08:27:02.225Z,1184
2018-01-28T08:28:11.059Z,1324
2018-01-28T08:29:20.170Z,1292
2018-01-28T08:30:29.000Z,1336
2018-01-28T08:31:37.832Z,1388
2018-01-28T08:32:46.665Z,1496
2018-01-28T08:33:55.497Z,1624
2018-01-28T08:35:04.331Z,1648
2018-01-28T08:36:13.161Z,1636
2018-01-28T08:37:21.995Z,1676
2018-01-28T08:38:31.102Z,1724
2018-01-28T08:39:40.208Z,1752
2018-01-28T08:40:49.040Z,1740
2018-01-28T08:41:57.873Z,1764
2018-01-28T08:43:06.709Z,1792
2018-01-28T08:44:15.542Z,1852
2018-01-28T08:45:24.376Z,1932
2018-01-28T08:46:33.207Z,1884
2018-01-28T08:47:42.042Z,1800
2018-01-28T08:48:50.875Z,1724
2018-01-28T08:49:59.707Z,1672
2018-01-28T08:51:08.540Z,1612
2018-01-28T08:52:17.373Z,1588
2018-01-28T08:53:26.207Z,1568
2018-01-28T08:54:35.041Z,1592
2018-01-28T08:55:43.874Z,1652
2018-01-28T08:56:52.704Z,1588
2018-01-28T08:58:01.538Z,1532
2018-01-28T08:59:10.373Z,1540
2018-01-28T09:00:19.477Z,1528
2018-01-28T09:01:28.309Z,1460
2018-01-28T09:02:37.144Z,1388
2018-01-28T09:03:46.128Z,1488
2018-01-28T09:04:54.961Z,1268
2018-01-28T09:06:03.789Z,1276
2018-01-28T09:07:12.623Z,1356
2018-01-28T09:08:21.455Z,1508
2018-01-28T09:09:30.438Z,1584
2018-01-28T09:10:39.272Z,1772
2018-01-28T09:11:48.105Z,1868
2018-01-28T09:12:56.938Z,1648
2018-01-28T09:14:05.771Z,1468
2018-01-28T09:15:14.803Z,1548
2018-01-28T09:16:23.635Z,1588
2018-01-28T09:17:32.469Z,1684
2018-01-28T09:18:41.302Z,1620
2018-01-28T09:19:50.130Z,1624
2018-01-28T09:20:59.114Z,1448
2018-01-28T09:22:07.947Z,1548
2018-01-28T09:23:16.781Z,1616
2018-01-28T09:24:25.614Z,1588
2018-01-28T09:25:34.448Z,1592
2018-01-28T09:26:43.682Z,1780
2018-01-28T09:27:52.791Z,1844
2018-01-28T09:29:01.684Z,1872
2018-01-28T09:30:10.457Z,2684
2018-01-28T09:31:19.288Z,2376
2018-01-28T09:32:28.694Z,2120
2018-01-28T09:33:37.525Z,2492
2018-01-28T09:34:46.358Z,2556
2018-01-28T09:35:55.190Z,2676
2018-01-28T09:37:04.024Z,2824
2018-01-28T09:38:13.007Z,3068
2018-01-28T09:39:21.843Z,2264
2018-01-28T09:40:30.693Z,3284
2018-01-28T09:41:39.783Z,3600
2018-01-28T09:42:48.893Z,2412
2018-01-28T09:43:57.724Z,2596
2018-01-28T09:45:06.558Z,2136
2018-01-28T09:46:15.388Z,3068
2018-01-28T09:47:24.222Z,2564
2018-01-28T09:48:33.058Z,2932
2018-01-28T09:49:41.953Z,2288
2018-01-28T09:50:50.788Z,3172
2018-01-28T09:51:59.620Z,3780
2018-01-28T09:53:08.462Z,3964
2018-01-28T09:54:17.577Z,3724
2018-01-28T09:55:26.715Z,3828
2018-01-28T09:56:35.542Z,3484
2018-01-28T09:57:44.379Z,2560
2018-01-28T09:58:53.209Z,4176
2018-01-28T10:00:02.042Z,3408
2018-01-28T10:01:11.296Z,3556
2018-01-28T10:02:20.129Z,2288
2018-01-28T10:03:28.961Z,2352
2018-01-28T10:04:37.794Z,2372
2018-01-28T10:05:46.627Z,2152
2018-01-28T10:06:55.564Z,2224
2018-01-28T10:08:04.397Z,2220
2018-01-28T10:09:13.504Z,2224
2018-01-28T10:10:22.618Z,2256
2018-01-28T10:11:31.443Z,2520
2018-01-28T10:12:40.287Z,2548
2018-01-28T10:13:49.391Z,2276
2018-01-28T10:14:58.223Z,2336
2018-01-28T10:16:07.060Z,2456
2018-01-28T10:17:15.894Z,2492
2018-01-28T10:18:24.776Z,2780
2018-01-28T10:19:33.614Z,2556
2018-01-28T10:20:42.444Z,2672
2018-01-28T10:21:51.279Z,4572
2018-01-28T10:23:00.130Z,3688
2018-01-28T10:24:08.945Z,3032
2018-01-28T10:25:17.781Z,3224
2018-01-28T10:26:26.616Z,3824
2018-01-28T10:27:35.450Z,3560
2018-01-28T10:28:44.283Z,3688
2018-01-28T10:29:53.168Z,3656
2018-01-28T10:31:02.001Z,3876
2018-01-28T10:32:10.834Z,4272
2018-01-28T10:33:19.667Z,4552
2018-01-28T10:34:28.500Z,3816
2018-01-28T10:35:37.384Z,3452
2018-01-28T10:36:46.218Z,3804
2018-01-28T10:37:55.057Z,3416
2018-01-28T10:39:35.950Z,4204
2018-01-28T10:40:44.934Z,4380
2018-01-28T10:41:53.767Z,3776
2018-01-28T10:43:02.600Z,3740
2018-01-28T10:44:11.434Z,3156
2018-01-28T10:45:20.268Z,2284
2018-01-28T10:46:29.253Z,3172
2018-01-28T10:47:38.367Z,3752
2018-01-28T10:48:47.475Z,3152
2018-01-28T10:49:56.311Z,3684
2018-01-28T10:51:05.149Z,3756
2018-01-28T10:52:13.982Z,3520
2018-01-28T10:53:22.815Z,2844
2018-01-28T10:54:31.657Z,2420
2018-01-28T10:55:40.500Z,1504
2018-01-28T10:56:49.333Z,1428
2018-01-28T10:57:58.216Z,1328
2018-01-28T10:59:07.323Z,1628
2018-01-28T11:00:16.159Z,1360
2018-01-28T11:01:25.265Z,1252
2018-01-28T11:02:34.098Z,2204
2018-01-28T11:03:43.333Z,1348
2018-01-28T11:04:52.166Z,1192
2018-01-28T11:06:01.002Z,1292
2018-01-28T11:07:09.844Z,1032
2018-01-28T11:08:18.676Z,1436
2018-01-28T11:09:27.559Z,1392
2018-01-28T11:10:36.667Z,1472
2018-01-28T11:11:45.502Z,1528
2018-01-28T11:12:54.334Z,1788
2018-01-28T11:14:03.165Z,2904
2018-01-28T11:15:12.272Z,1944
2018-01-28T11:16:21.099Z,1996
2018-01-28T11:17:29.974Z,1996
2018-01-28T11:18:39.036Z,2572
2018-01-28T11:19:47.878Z,2612
2018-01-28T11:20:56.862Z,3184
2018-01-28T11:22:05.693Z,3612
2018-01-28T11:23:14.524Z,2736
2018-01-28T11:24:23.359Z,2696
2018-01-28T11:25:32.189Z,1944
2018-01-28T11:26:41.297Z,2340
2018-01-28T11:27:50.405Z,1848
2018-01-28T11:28:59.237Z,1448
2018-01-28T11:30:08.070Z,1704
2018-01-28T11:31:16.902Z,2232
2018-01-28T11:32:25.733Z,2448
2018-01-28T11:33:34.840Z,2244
2018-01-28T11:34:43.690Z,2204
2018-01-28T11:35:52.523Z,2148
2018-01-28T11:37:01.360Z,2468
2018-01-28T11:38:10.581Z,3492
2018-01-28T11:39:19.429Z,3252
2018-01-28T11:40:28.537Z,3496
2018-01-28T11:41:37.371Z,3144
2018-01-28T11:42:46.205Z,4472
2018-01-28T11:43:55.041Z,5124
2018-01-28T11:45:03.872Z,4396
2018-01-28T11:46:12.707Z,3516
2018-01-28T11:47:21.812Z,4456
2018-01-28T11:48:30.648Z,4420
2018-01-28T11:49:39.476Z,5900
2018-01-28T11:50:48.309Z,5312
2018-01-28T11:51:57.149Z,7016
2018-01-28T11:53:05.977Z,6912
2018-01-28T11:54:14.811Z,7608
2018-01-28T11:55:23.646Z,6236
2018-01-28T11:56:32.478Z,6108
2018-01-28T11:57:41.378Z,5608
2018-01-28T11:58:50.484Z,5292
2018-01-28T11:59:59.320Z,5804
2018-01-28T12:01:08.428Z,5056
2018-01-28T12:02:17.258Z,4352
2018-01-28T12:03:26.096Z,4244
2018-01-28T12:04:34.929Z,3572
2018-01-28T12:05:43.763Z,3976
2018-01-28T12:06:52.597Z,4236
2018-01-28T12:08:01.431Z,5164
2018-01-28T12:09:10.417Z,4576
2018-01-28T12:10:19.248Z,5072
2018-01-28T12:11:28.082Z,5988
2018-01-28T12:12:36.921Z,5640
2018-01-28T12:13:45.754Z,5420
2018-01-28T12:14:54.891Z,5608
2018-01-28T12:16:03.724Z,5452
2018-01-28T12:17:12.559Z,4692
2018-01-28T12:18:21.394Z,4604
2018-01-28T12:19:30.231Z,4460
2018-01-28T12:20:39.267Z,4288
2018-01-28T12:21:48.099Z,3764
2018-01-28T12:22:56.935Z,4376
2018-01-28T12:24:05.770Z,4784
2018-01-28T12:25:14.604Z,3984
2018-01-28T12:26:23.964Z,4516
2018-01-28T12:27:32.799Z,4808
2018-01-28T12:28:41.632Z,5188
2018-01-28T12:29:50.476Z,4492
2018-01-28T12:30:59.593Z,5048
2018-01-28T12:32:08.482Z,4804
2018-01-28T12:33:17.317Z,3884
2018-01-28T12:34:26.153Z,5052
2018-01-28T12:35:34.987Z,4164
2018-01-28T12:36:43.824Z,3788
2018-01-28T12:37:52.809Z,3288
2018-01-28T12:39:01.643Z,3084
2018-01-28T12:40:10.479Z,3792
2018-01-28T12:41:19.313Z,3960
2018-01-28T12:42:28.146Z,2796
2018-01-28T12:43:37.129Z,2696
2018-01-28T12:44:45.989Z,2740
2018-01-28T12:45:54.824Z,2224
2018-01-28T12:47:03.662Z,2328
2018-01-28T12:48:12.497Z,2680
2018-01-28T12:49:21.331Z,2780
2018-01-28T12:50:30.164Z,2672
2018-01-28T12:51:38.998Z,2376
2018-01-28T12:52:47.830Z,2360
2018-01-28T12:53:56.664Z,2460
2018-01-28T12:55:05.599Z,2244
2018-01-28T12:56:14.435Z,2260
2018-01-28T12:57:23.269Z,2588
2018-01-28T12:58:32.100Z,2900
2018-01-28T12:59:40.932Z,2720
2018-01-28T13:00:49.916Z,2268
2018-01-28T13:01:58.750Z,2336
2018-01-28T13:03:07.582Z,2564
2018-01-28T13:04:16.418Z,2612
2018-01-28T13:05:25.529Z,2272
2018-01-28T13:06:34.636Z,2060
2018-01-28T13:07:43.470Z,2304
2018-01-28T13:08:52.303Z,2144
2018-01-28T13:10:01.135Z,2192
2018-01-28T13:11:09.966Z,2252
2018-01-28T13:12:18.948Z,2312
2018-01-28T13:13:27.782Z,2392
2018-01-28T13:14:36.618Z,2268
2018-01-28T13:15:45.452Z,1832
2018-01-28T13:16:54.282Z,1724
2018-01-28T13:18:03.451Z,1424
2018-01-28T13:19:12.286Z,1548
2018-01-28T13:20:21.120Z,1556
2018-01-28T13:21:29.954Z,1596
2018-01-28T13:22:38.800Z,1404
2018-01-28T13:23:47.935Z,1500
2018-01-28T13:24:56.768Z,1984
2018-01-28T13:26:05.602Z,1980
2018-01-28T13:27:14.707Z,1652
2018-01-28T13:28:23.542Z,1460
2018-01-28T13:29:32.526Z,1628
2018-01-28T13:30:41.359Z,1500
2018-01-28T13:31:50.193Z,1168
2018-01-28T13:32:59.327Z,1368
2018-01-28T13:34:08.434Z,1324
2018-01-28T13:35:17.571Z,1108
2018-01-28T13:36:26.407Z,1240
2018-01-28T13:37:35.292Z,1080
2018-01-28T13:38:44.219Z,1128
2018-01-28T13:39:53.146Z,1016
2018-01-28T13:41:02.391Z,1252
2018-01-28T13:42:11.703Z,1192
2018-01-28T13:43:20.832Z,1300
2018-01-28T13:44:29.701Z,1368
2018-01-28T13:45:38.617Z,1388
2018-01-28T13:46:47.559Z,1248
2018-01-28T13:47:56.389Z,1228
2018-01-28T13:49:05.224Z,1344
2018-01-28T13:50:14.058Z,1208
2018-01-28T13:51:22.893Z,1384
2018-01-28T13:52:31.878Z,1244
2018-01-28T13:53:40.714Z,1232
2018-01-28T13:54:49.549Z,1208
2018-01-28T13:55:58.383Z,968
2018-01-28T13:57:07.218Z,1304
2018-01-28T13:58:16.205Z,1292
2018-01-28T13:59:25.317Z,1084
2018-01-28T14:00:34.150Z,1204
2018-01-28T14:01:42.985Z,1268
2018-01-28T14:02:51.824Z,1316
2018-01-28T14:04:00.673Z,1296
2018-01-28T14:05:09.508Z,1060
2018-01-28T14:06:18.343Z,1144
2018-01-28T14:07:27.178Z,984
2018-01-28T14:08:36.065Z,1036
2018-01-28T14:09:44.949Z,1000
2018-01-28T14:10:53.784Z,976
2018-01-28T14:12:02.618Z,964
2018-01-28T14:13:11.453Z,996
2018-01-28T14:14:20.289Z,920
2018-01-28T14:15:29.275Z,908
2018-01-28T14:16:38.109Z,840
2018-01-28T14:17:46.942Z,888
2018-01-28T14:18:55.786Z,884
2018-01-28T14:20:04.629Z,872
2018-01-28T14:21:13.774Z,868
2018-01-28T14:22:22.613Z,976
2018-01-28T14:23:31.447Z,1064
2018-01-28T14:24:40.283Z,1108
2018-01-28T14:25:49.122Z,1104
2018-01-28T14:26:57.956Z,1108
2018-01-28T14:28:06.791Z,964
2018-01-28T14:29:15.626Z,992
2018-01-28T14:30:24.461Z,1128
2018-01-28T14:31:33.294Z,1112
2018-01-28T14:32:42.180Z,1080
2018-01-28T14:33:51.014Z,980
2018-01-28T14:34:59.872Z,920
2018-01-28T14:36:08.684Z,972
2018-01-28T14:37:17.515Z,884
2018-01-28T14:38:26.448Z,836
2018-01-28T14:39:35.295Z,916
2018-01-28T14:40:44.136Z,900
2018-01-28T14:41:52.980Z,852
2018-01-28T14:43:01.822Z,828
2018-01-28T14:44:11.624Z,800
2018-01-28T14:45:20.460Z,704
2018-01-28T14:47:01.365Z,592
2018-01-28T14:48:10.202Z,552
2018-01-28T14:49:19.439Z,464
2018-01-28T14:50:28.272Z,396
2018-01-28T14:51:37.111Z,352
2018-01-28T14:52:46.216Z,324
2018-01-28T14:53:55.050Z,292
2018-01-28T14:55:04.085Z,300
2018-01-28T14:56:12.920Z,276
2018-01-28T14:57:21.754Z,312
2018-01-28T14:58:30.588Z,304
2018-01-28T14:59:39.430Z,316
2018-01-28T15:00:48.848Z,316
2018-01-28T15:01:57.682Z,272
2018-01-28T15:03:06.516Z,244
2018-01-28T15:04:15.352Z,232
2018-01-28T15:05:24.193Z,252
2018-01-28T15:06:33.126Z,252
2018-01-28T15:07:41.961Z,256
2018-01-28T15:08:50.797Z,248
2018-01-28T15:09:59.634Z,252
2018-01-28T15:11:08.467Z,276
2018-01-28T15:12:17.451Z,256
2018-01-28T15:13:26.302Z,232
2018-01-28T15:14:35.146Z,244
2018-01-28T15:15:43.980Z,248
2018-01-28T15:16:53.095Z,212
2018-01-28T15:18:01.978Z,200
2018-01-28T15:19:10.813Z,188
2018-01-28T15:20:19.701Z,196
2018-01-28T15:21:28.480Z,176
2018-01-28T15:22:37.314Z,164
2018-01-28T15:23:46.297Z,172
2018-01-28T15:24:55.130Z,160
2018-01-28T15:26:03.967Z,160
2018-01-28T15:27:12.800Z,136
2018-01-28T15:28:21.633Z,120
2018-01-28T15:29:30.517Z,128
2018-01-28T15:30:39.351Z,120
2018-01-28T15:31:48.184Z,104
2018-01-28T15:32:57.018Z,112
2018-01-28T15:34:05.851Z,108
2018-01-28T15:35:14.786Z,92
2018-01-28T15:36:23.621Z,76
2018-01-28T15:37:32.453Z,80
2018-01-28T15:38:41.286Z,84
2018-01-28T15:39:50.121Z,80
2018-01-28T15:40:59.004Z,68
2018-01-28T15:42:07.846Z,72
2018-01-28T15:43:16.671Z,64
2018-01-28T15:44:25.507Z,64
2018-01-28T15:45:34.339Z,52
2018-01-28T15:46:43.448Z,52
2018-01-28T15:47:52.283Z,52
2018-01-28T15:49:01.114Z,48
2018-01-28T15:50:09.949Z,40
2018-01-28T15:51:18.783Z,36
2018-01-28T15:52:27.615Z,32
2018-01-28T15:53:36.452Z,32
2018-01-28T15:54:45.282Z,28
2018-01-28T15:55:54.117Z,24
2018-01-28T15:57:02.952Z,24
2018-01-28T15:58:12.059Z,24
2018-01-28T15:59:21.167Z,20
2018-01-28T16:00:30.001Z,24
2018-01-28T16:01:38.845Z,20
2018-01-28T16:02:47.678Z,20
2018-01-28T16:03:56.908Z,20
2018-01-28T16:05:05.748Z,12
2018-01-28T16:06:14.583Z,12
2018-01-28T16:07:23.416Z,12
2018-01-28T16:08:32.248Z,12